createdAt,value
2022-10-23T00:01:43.799Z,96709.78
2022-10-23T00:04:20.237Z,96705.91
2022-10-23T00:06:48.544Z,96709.13
2022-10-23T00:09:19.508Z,96704.44
2022-10-23T00:11:48.208Z,96699.66
2022-10-23T00:14:16.662Z,96706.25
2022-10-23T00:16:44.410Z,96710.25
2022-10-23T00:19:11.558Z,96705.56
2022-10-23T00:21:39.630Z,96707.28
2022-10-23T00:24:07.221Z,96705.22
2022-10-23T00:26:34.286Z,96701.81
2022-10-23T00:29:01.268Z,96711.06
2022-10-23T00:31:28.179Z,96706.19
2022-10-23T00:33:55.119Z,96703.56
2022-10-23T00:36:22.621Z,96710.94
2022-10-23T00:38:50.888Z,96720.41
2022-10-23T00:41:29.431Z,96721.88
2022-10-23T00:44:18.491Z,96728.34
2022-10-23T00:46:46.471Z,96721.97
2022-10-23T00:49:14.818Z,96726.06
2022-10-23T00:51:49.249Z,96726.28
2022-10-23T00:54:23.929Z,96730.16
2022-10-23T00:56:54.938Z,96728.78
2022-10-23T00:59:22.068Z,96723.97
2022-10-23T01:01:49.201Z,96721.56
2022-10-23T01:04:17.076Z,96727.47
2022-10-23T01:06:51.727Z,96729.41
2022-10-23T01:09:43.768Z,96726.19
2022-10-23T01:12:14.679Z,96724.25
2022-10-23T01:14:54.948Z,96718.66
2022-10-23T01:17:44.907Z,96717.09
2022-10-23T01:20:31.871Z,96724.78
2022-10-23T01:23:36.065Z,96717.94
2022-10-23T01:26:12.358Z,96711.34
2022-10-23T01:28:50.470Z,96713.38
2022-10-23T01:31:30.928Z,96724.53
2022-10-23T01:34:10.008Z,96724.28
2022-10-23T01:36:44.239Z,96715.41
2022-10-23T01:39:36.183Z,96723.06
2022-10-23T01:42:08.748Z,96717.00
2022-10-23T01:44:41.829Z,96718.03
2022-10-23T01:47:12.626Z,96722.47
2022-10-23T01:50:00.088Z,96718.84
2022-10-23T01:52:27.330Z,96716.81
2022-10-23T01:54:59.799Z,96712.94
2022-10-23T01:57:31.549Z,96712.50
2022-10-23T02:00:07.470Z,96703.41
2022-10-23T02:02:52.779Z,96701.94
2022-10-23T02:05:26.450Z,96703.53
2022-10-23T02:07:55.321Z,96704.13
2022-10-23T02:10:28.988Z,96703.09
2022-10-23T02:13:05.348Z,96698.88
2022-10-23T02:15:36.850Z,96700.03
2022-10-23T02:18:14.391Z,96697.66
2022-10-23T02:21:10.215Z,96696.84
2022-10-23T02:24:01.368Z,96702.94
2022-10-23T02:26:56.268Z,96690.44
2022-10-23T02:29:31.169Z,96686.25
2022-10-23T02:31:59.808Z,96685.44
2022-10-23T02:34:26.829Z,96685.22
2022-10-23T02:36:54.529Z,96687.03
2022-10-23T02:39:26.948Z,96683.41
2022-10-23T02:41:59.740Z,96685.44
2022-10-23T02:44:55.059Z,96685.69
2022-10-23T02:47:39.985Z,96691.13
2022-10-23T02:50:13.179Z,96685.44
2022-10-23T02:53:01.639Z,96692.50
2022-10-23T02:55:35.991Z,96692.50
2022-10-23T02:58:22.028Z,96694.56
2022-10-23T03:00:57.215Z,96691.94
2022-10-23T03:03:30.219Z,96684.72
2022-10-23T03:05:57.838Z,96685.53
2022-10-23T03:08:25.331Z,96695.19
2022-10-23T03:10:52.670Z,96689.16
2022-10-23T03:13:21.678Z,96695.66
2022-10-23T03:15:48.679Z,96690.84
2022-10-23T03:18:15.728Z,96693.94
2022-10-23T03:20:47.868Z,96694.16
2022-10-23T03:23:15.268Z,96695.16
2022-10-23T03:25:43.009Z,96690.94
2022-10-23T03:28:10.970Z,96696.97
2022-10-23T03:30:38.056Z,96703.22
2022-10-23T03:33:05.049Z,96698.56
2022-10-23T03:35:35.387Z,96691.53
2022-10-23T03:38:02.549Z,96697.56
2022-10-23T03:40:29.736Z,96700.19
2022-10-23T03:42:56.738Z,96688.13
2022-10-23T03:45:23.860Z,96682.88
2022-10-23T03:47:52.021Z,96691.16
2022-10-23T03:50:19.179Z,96692.97
2022-10-23T03:52:46.416Z,96688.78
2022-10-23T03:55:14.981Z,96685.59
2022-10-23T03:57:41.978Z,96686.19
2022-10-23T04:00:10.598Z,96689.81
2022-10-23T04:02:44.585Z,96682.97
2022-10-23T04:05:12.499Z,96678.75
2022-10-23T04:07:47.779Z,96680.44
2022-10-23T04:10:15.122Z,96682.81
2022-10-23T04:12:42.469Z,96681.81
2022-10-23T04:15:10.079Z,96676.56
2022-10-23T04:17:37.158Z,96680.19
2022-10-23T04:20:05.200Z,96679.44
2022-10-23T04:22:32.200Z,96664.97
2022-10-23T04:25:00.560Z,96674.63
2022-10-23T04:27:29.355Z,96671.22
2022-10-23T04:29:59.014Z,96679.50
2022-10-23T04:32:27.067Z,96677.22
2022-10-23T04:34:53.973Z,96668.78
2022-10-23T04:37:21.180Z,96665.34
2022-10-23T04:39:48.196Z,96670.00
2022-10-23T04:42:15.498Z,96668.69
2022-10-23T04:44:42.516Z,96679.41
2022-10-23T04:47:09.631Z,96666.53
2022-10-23T04:49:46.376Z,96662.53
2022-10-23T04:52:33.293Z,96664.34
2022-10-23T04:55:07.631Z,96660.59
2022-10-23T04:58:04.137Z,96663.19
2022-10-23T05:00:32.316Z,96661.19
2022-10-23T05:02:59.441Z,96661.75
2022-10-23T05:05:32.505Z,96650.47
2022-10-23T05:08:04.689Z,96651.06
2022-10-23T05:11:06.585Z,96639.59
2022-10-23T05:13:40.594Z,96641.19
2022-10-23T05:16:08.936Z,96644.41
2022-10-23T05:18:46.885Z,96644.41
2022-10-23T05:21:26.146Z,96634.72
2022-10-23T05:23:55.093Z,96628.25
2022-10-23T05:26:22.684Z,96634.38
2022-10-23T05:28:52.615Z,96628.34
2022-10-23T05:31:22.604Z,96632.19
2022-10-23T05:33:51.787Z,96636.78
2022-10-23T05:36:21.566Z,96639.38
2022-10-23T05:38:54.894Z,96635.75
2022-10-23T05:41:22.165Z,96639.75
2022-10-23T05:43:49.333Z,96645.00
2022-10-23T05:46:43.627Z,96640.09
2022-10-23T05:49:42.775Z,96651.06
2022-10-23T05:52:32.927Z,96651.56
2022-10-23T05:55:18.556Z,96653.50
2022-10-23T05:58:04.177Z,96650.16
2022-10-23T06:01:00.804Z,96653.72
2022-10-23T06:03:46.493Z,96659.06
2022-10-23T06:06:13.655Z,96656.25
2022-10-23T06:08:46.967Z,96662.38
2022-10-23T06:11:15.634Z,96658.75
2022-10-23T06:13:49.776Z,96665.50
2022-10-23T06:16:24.925Z,96664.78
2022-10-23T06:18:52.591Z,96663.19
2022-10-23T06:21:20.099Z,96659.78
2022-10-23T06:23:49.675Z,96664.91
2022-10-23T06:26:18.615Z,96664.69
2022-10-23T06:28:57.260Z,96673.84
2022-10-23T06:31:26.993Z,96674.97
2022-10-23T06:33:56.596Z,96677.75
2022-10-23T06:36:24.784Z,96681.84
2022-10-23T06:38:56.545Z,96673.69
2022-10-23T06:41:36.965Z,96674.13
2022-10-23T06:44:04.124Z,96680.44
2022-10-23T06:46:49.526Z,96674.28
2022-10-23T06:49:35.205Z,96673.78
2022-10-23T06:52:03.119Z,96672.63
2022-10-23T06:54:30.259Z,96680.16
2022-10-23T06:57:20.242Z,96687.00
2022-10-23T06:59:47.326Z,96688.00
2022-10-23T07:02:16.238Z,96687.44
2022-10-23T07:04:43.213Z,96694.03
2022-10-23T07:07:17.615Z,96697.69
2022-10-23T07:09:47.747Z,96698.88
2022-10-23T07:12:25.025Z,96691.03
2022-10-23T07:15:12.006Z,96694.53
2022-10-23T07:17:39.174Z,96703.28
2022-10-23T07:20:06.639Z,96693.47
2022-10-23T07:22:34.414Z,96691.75
2022-10-23T07:25:11.535Z,96693.66
2022-10-23T07:27:39.935Z,96700.16
2022-10-23T07:30:09.666Z,96697.28
2022-10-23T07:32:50.695Z,96708.09
2022-10-23T07:35:52.938Z,96709.13
2022-10-23T07:38:25.877Z,96698.72
2022-10-23T07:40:57.835Z,96697.31
2022-10-23T07:43:25.680Z,96698.25
2022-10-23T07:45:53.693Z,96683.16
2022-10-23T07:48:46.726Z,96694.13
2022-10-23T07:51:16.247Z,96686.50
2022-10-23T07:53:46.467Z,96687.47
2022-10-23T07:56:32.049Z,96692.63
2022-10-23T07:59:13.479Z,96686.50
2022-10-23T08:01:43.750Z,96688.94
2022-10-23T08:04:10.932Z,96682.53
2022-10-23T08:06:45.445Z,96680.31
2022-10-23T08:09:12.500Z,96672.31
2022-10-23T08:11:42.456Z,96672.50
2022-10-23T08:14:11.904Z,96671.06
2022-10-23T08:16:42.473Z,96680.63
2022-10-23T08:19:18.776Z,96681.22
2022-10-23T08:21:47.605Z,96678.41
2022-10-23T08:24:15.248Z,96670.31
2022-10-23T08:26:45.150Z,96669.31
2022-10-23T08:29:13.684Z,96667.78
2022-10-23T08:31:41.450Z,96667.78
2022-10-23T08:34:28.960Z,96664.00
2022-10-23T08:36:56.384Z,96669.06
2022-10-23T08:39:24.270Z,96664.97
2022-10-23T08:42:19.577Z,96658.16
2022-10-23T08:45:05.395Z,96657.22
2022-10-23T08:47:42.325Z,96657.56
2022-10-23T08:53:22.482Z,96651.97
2022-10-23T08:56:18.523Z,96655.47
2022-10-23T09:01:37.841Z,96664.28
2022-10-23T09:04:05.575Z,96658.28
2022-10-23T09:06:45.305Z,96663.59
2022-10-23T09:09:30.904Z,96668.13
2022-10-23T09:12:11.868Z,96676.09
2022-10-23T09:14:57.765Z,96674.56
2022-10-23T09:17:28.285Z,96677.75
2022-10-23T09:20:22.789Z,96672.22
2022-10-23T09:23:11.473Z,96678.59
2022-10-23T09:25:40.576Z,96675.72
2022-10-23T09:28:16.314Z,96675.44
2022-10-23T09:30:43.735Z,96671.72
2022-10-23T09:33:28.867Z,96668.25
2022-10-23T09:36:00.177Z,96664.00
2022-10-23T09:38:32.077Z,96660.81
2022-10-23T09:41:08.303Z,96659.44
2022-10-23T09:43:35.303Z,96665.44
2022-10-23T09:46:06.735Z,96665.16
2022-10-23T09:48:36.094Z,96667.75
2022-10-23T09:51:05.116Z,96659.66
2022-10-23T09:53:50.893Z,96652.66
2022-10-23T09:56:24.734Z,96647.28
2022-10-23T09:59:01.136Z,96643.91
2022-10-23T10:01:45.520Z,96636.59
2022-10-23T10:04:37.064Z,96636.22
2022-10-23T10:07:07.095Z,96634.72
2022-10-23T10:09:34.593Z,96629.84
2022-10-23T10:12:18.355Z,96628.91
2022-10-23T10:14:48.234Z,96630.22
2022-10-23T10:17:20.934Z,96632.03
2022-10-23T10:20:05.478Z,96636.09
2022-10-23T10:22:42.979Z,96630.16
2022-10-23T10:25:52.061Z,96612.13
2022-10-23T10:28:42.045Z,96609.31
2022-10-23T10:31:11.798Z,96613.25
2022-10-23T10:33:41.809Z,96611.91
2022-10-23T10:36:47.459Z,96604.94
2022-10-23T10:39:45.631Z,96598.28
2022-10-23T10:42:21.526Z,96608.28
2022-10-23T10:45:01.760Z,96601.38
2022-10-23T10:47:57.486Z,96597.06
2022-10-23T10:50:56.257Z,96593.31
2022-10-23T10:54:12.479Z,96594.28
2022-10-23T10:56:43.326Z,96581.81
2022-10-23T10:59:19.411Z,96584.03
2022-10-23T11:13:34.041Z,96559.28
2022-10-23T11:16:25.815Z,96562.50
2022-10-23T11:19:14.174Z,96556.91
2022-10-23T11:21:59.877Z,96547.97
2022-10-23T11:24:45.342Z,96542.28
2022-10-23T11:27:46.373Z,96536.53
2022-10-23T11:30:22.096Z,96535.28
2022-10-23T11:33:07.070Z,96537.06
2022-10-23T11:35:45.808Z,96529.94
2022-10-23T11:38:35.311Z,96524.41
2022-10-23T11:41:19.968Z,96524.91
2022-10-23T11:43:52.838Z,96514.88
2022-10-23T11:46:28.918Z,96510.16
2022-10-23T11:48:57.242Z,96514.09
2022-10-23T11:51:34.979Z,96504.50
2022-10-23T11:54:25.026Z,96517.47
2022-10-23T11:57:03.027Z,96512.00
2022-10-23T11:59:45.276Z,96516.94
2022-10-23T12:02:38.433Z,96515.75
2022-10-23T12:05:42.413Z,96511.09
2022-10-23T12:08:23.642Z,96513.63
2022-10-23T12:10:53.082Z,96508.81
2022-10-23T12:13:52.639Z,96503.78
2022-10-23T12:16:19.617Z,96499.53
2022-10-23T12:18:53.202Z,96495.78
2022-10-23T12:21:28.832Z,96504.63
2022-10-23T12:24:12.388Z,96501.25
2022-10-23T12:26:43.798Z,96500.69
2022-10-23T12:29:22.947Z,96490.22
2022-10-23T12:32:14.186Z,96470.16
2022-10-23T12:34:44.167Z,96460.19
2022-10-23T12:37:34.348Z,96451.09
2022-10-23T12:40:02.110Z,96458.03
2022-10-23T12:42:29.942Z,96458.16
2022-10-23T12:45:15.009Z,96455.44
2022-10-23T12:47:44.467Z,96447.81
2022-10-23T12:50:19.385Z,96439.38
2022-10-23T12:53:01.497Z,96431.88
2022-10-23T12:55:35.812Z,96426.78
2022-10-23T12:58:03.201Z,96441.53
2022-10-23T13:00:31.246Z,96434.59
2022-10-23T13:03:00.751Z,96428.44
2022-10-23T13:05:29.419Z,96412.78
2022-10-23T13:07:58.136Z,96410.38
2022-10-23T13:10:37.806Z,96417.41
2022-10-23T13:13:08.678Z,96417.03
2022-10-23T13:15:44.317Z,96420.81
2022-10-23T13:18:14.678Z,96415.22
2022-10-23T13:20:52.249Z,96415.69
2022-10-23T13:23:32.967Z,96410.28
2022-10-23T13:26:23.840Z,96403.00
2022-10-23T13:28:51.298Z,96414.81
2022-10-23T13:31:18.178Z,96412.06
2022-10-23T13:33:53.506Z,96405.19
2022-10-23T13:36:23.442Z,96390.06
2022-10-23T13:39:00.183Z,96387.78
2022-10-23T13:41:44.608Z,96381.44
2022-10-23T13:44:13.657Z,96387.97
2022-10-23T13:46:41.007Z,96393.44
2022-10-23T13:49:07.915Z,96403.19
2022-10-23T13:51:42.584Z,96400.75
2022-10-23T13:54:24.656Z,96410.88
2022-10-23T13:56:52.866Z,96407.66
2022-10-23T13:59:20.407Z,96400.38
2022-10-23T14:01:48.952Z,96392.97
2022-10-23T14:04:17.855Z,96395.34
2022-10-23T14:06:45.147Z,96394.13
2022-10-23T14:09:14.820Z,96398.16
2022-10-23T14:11:42.421Z,96397.63
2022-10-23T14:14:09.701Z,96387.03
2022-10-23T14:16:36.778Z,96387.53
2022-10-23T14:19:04.083Z,96388.38
2022-10-23T14:21:31.038Z,96379.47
2022-10-23T14:23:57.937Z,96386.25
2022-10-23T14:26:30.595Z,96388.72
2022-10-23T14:29:02.270Z,96398.81
2022-10-23T14:31:33.949Z,96397.94
2022-10-23T14:34:01.867Z,96407.22
2022-10-23T14:36:38.529Z,96397.47
2022-10-23T14:39:16.690Z,96401.31
2022-10-23T14:41:43.732Z,96388.09
2022-10-23T14:44:10.796Z,96397.13
2022-10-23T14:46:38.642Z,96393.94
2022-10-23T14:49:06.101Z,96401.38
2022-10-23T14:51:33.227Z,96402.31
2022-10-23T14:54:03.164Z,96399.84
2022-10-23T14:56:32.267Z,96403.72
2022-10-23T14:59:03.061Z,96391.69
2022-10-23T15:01:35.165Z,96389.34
2022-10-23T15:04:02.216Z,96398.25
2022-10-23T15:06:29.166Z,96391.28
2022-10-23T15:08:56.449Z,96388.25
2022-10-23T15:11:24.944Z,96390.47
2022-10-23T15:13:52.045Z,96383.66
2022-10-23T15:16:18.977Z,96378.50
2022-10-23T15:18:45.906Z,96384.16
2022-10-23T15:21:12.932Z,96383.41
2022-10-23T15:23:43.197Z,96382.47
2022-10-23T15:26:13.127Z,96381.75
2022-10-23T15:28:40.142Z,96378.13
2022-10-23T15:31:07.188Z,96389.88
2022-10-23T15:33:34.138Z,96385.97
2022-10-23T15:36:01.057Z,96386.31
2022-10-23T15:38:28.098Z,96385.06
2022-10-23T15:41:10.976Z,96382.50
2022-10-23T15:43:38.046Z,96386.84
2022-10-23T15:46:05.175Z,96373.72
2022-10-23T15:48:32.161Z,96380.94
2022-10-23T15:50:59.458Z,96384.72
2022-10-23T15:53:26.546Z,96385.56
2022-10-23T15:55:53.516Z,96385.38
2022-10-23T15:58:20.576Z,96387.03
2022-10-23T16:00:47.512Z,96385.50
2022-10-23T16:03:14.450Z,96380.00
2022-10-23T16:05:41.477Z,96388.78
2022-10-23T16:08:08.487Z,96385.66
2022-10-23T16:10:42.417Z,96390.72
2022-10-23T16:13:09.843Z,96384.13
2022-10-23T16:15:37.807Z,96384.66
2022-10-23T16:18:05.610Z,96390.25
2022-10-23T16:20:32.518Z,96395.03
2022-10-23T16:22:59.535Z,96392.13
2022-10-23T16:25:26.519Z,96392.69
2022-10-23T16:27:53.545Z,96392.97
2022-10-23T16:30:22.628Z,96392.19
2022-10-23T16:32:50.996Z,96388.50
2022-10-23T16:35:17.916Z,96382.97
2022-10-23T16:37:56.828Z,96390.66
2022-10-23T16:40:24.357Z,96396.19
2022-10-23T16:43:09.885Z,96397.00
2022-10-23T16:45:41.466Z,96401.75
2022-10-23T16:48:08.489Z,96400.44
2022-10-23T16:53:29.226Z,96409.66
2022-10-23T16:55:57.816Z,96409.66
2022-10-23T16:58:25.969Z,96414.38
2022-10-23T17:01:20.321Z,96415.19
2022-10-23T17:03:49.319Z,96403.56
2022-10-23T17:06:19.338Z,96409.13
2022-10-23T17:08:46.745Z,96401.19
2022-10-23T17:11:19.716Z,96411.75
2022-10-23T17:13:59.118Z,96403.31
2022-10-23T17:16:40.479Z,96403.56
2022-10-23T17:19:20.990Z,96409.63
2022-10-23T17:21:58.483Z,96412.00
2022-10-23T17:24:25.840Z,96420.41
2022-10-23T17:26:54.188Z,96420.13
2022-10-23T17:29:51.737Z,96424.59
2022-10-23T17:32:37.771Z,96419.88
2022-10-23T17:35:27.122Z,96420.63
2022-10-23T17:37:57.967Z,96413.75
2022-10-23T17:40:28.880Z,96423.25
2022-10-23T17:43:06.797Z,96427.44
2022-10-23T17:45:37.180Z,96422.41
2022-10-23T17:48:05.708Z,96422.16
2022-10-23T17:50:33.705Z,96415.81
2022-10-23T17:53:00.935Z,96408.97
2022-10-23T17:55:27.945Z,96407.09
2022-10-23T17:57:54.853Z,96398.94
2022-10-23T18:00:24.882Z,96409.47
2022-10-23T18:02:54.560Z,96415.78
2022-10-23T18:05:21.734Z,96407.34
2022-10-23T18:07:50.315Z,96400.47
2022-10-23T18:10:17.772Z,96407.06
2022-10-23T18:12:45.338Z,96411.00
2022-10-23T18:15:12.465Z,96406.19
2022-10-23T18:17:39.618Z,96414.59
2022-10-23T18:20:07.280Z,96422.47
2022-10-23T18:22:34.537Z,96419.06
2022-10-23T18:25:02.977Z,96414.31
2022-10-23T18:27:30.107Z,96415.63
2022-10-23T18:29:57.226Z,96414.28
2022-10-23T18:32:24.236Z,96408.19
2022-10-23T18:34:51.384Z,96404.44
2022-10-23T18:37:19.127Z,96408.13
2022-10-23T18:39:46.206Z,96406.50
2022-10-23T18:42:13.214Z,96395.19
2022-10-23T18:44:40.307Z,96393.59
2022-10-23T18:47:07.514Z,96395.16
2022-10-23T18:49:34.597Z,96392.78
2022-10-23T18:52:01.637Z,96384.38
2022-10-23T18:54:28.760Z,96384.88
2022-10-23T18:56:55.846Z,96381.97
2022-10-23T18:59:23.659Z,96382.22
2022-10-23T19:01:50.914Z,96385.34
2022-10-23T19:04:18.808Z,96382.22
2022-10-23T19:06:47.248Z,96375.63
2022-10-23T19:09:14.927Z,96379.28
2022-10-23T19:11:42.715Z,96367.16
2022-10-23T19:14:10.206Z,96359.78
2022-10-23T19:16:39.856Z,96357.66
2022-10-23T19:19:23.004Z,96360.50
2022-10-23T19:21:51.038Z,96365.28
2022-10-23T19:24:23.256Z,96374.94
2022-10-23T19:26:51.065Z,96379.69
2022-10-23T19:29:22.366Z,96368.59
2022-10-23T19:31:49.979Z,96367.28
2022-10-23T19:34:20.178Z,96372.28
2022-10-23T19:36:48.866Z,96373.00
2022-10-23T19:39:17.880Z,96370.38
2022-10-23T19:41:45.751Z,96369.06
2022-10-23T19:44:14.867Z,96369.31
2022-10-23T19:46:41.945Z,96363.50
2022-10-23T19:49:09.405Z,96357.69
2022-10-23T19:51:37.437Z,96354.00
2022-10-23T19:54:05.437Z,96354.75
2022-10-23T19:56:32.535Z,96354.16
2022-10-23T19:58:59.464Z,96360.69
2022-10-23T20:01:26.506Z,96363.81
2022-10-23T20:03:55.645Z,96360.38
2022-10-23T20:06:26.778Z,96348.31
2022-10-23T20:08:54.577Z,96355.63
2022-10-23T20:11:24.617Z,96345.66
2022-10-23T20:13:52.328Z,96347.44
2022-10-23T20:16:20.447Z,96345.25
2022-10-23T20:18:47.729Z,96348.97
2022-10-23T20:21:15.046Z,96346.06
2022-10-23T20:23:43.286Z,96340.53
2022-10-23T20:26:16.227Z,96346.06
2022-10-23T20:28:47.188Z,96348.66
2022-10-23T20:31:16.325Z,96345.22
2022-10-23T20:33:43.566Z,96356.06
2022-10-23T20:36:26.106Z,96345.53
2022-10-23T20:38:54.125Z,96344.22
2022-10-23T20:41:21.978Z,96341.06
2022-10-23T20:43:49.036Z,96341.84
2022-10-23T20:46:16.075Z,96349.69
2022-10-23T20:48:44.846Z,96352.56
2022-10-23T20:51:16.011Z,96353.81
2022-10-23T20:53:44.161Z,96368.25
2022-10-23T20:56:17.005Z,96365.06
2022-10-23T20:58:44.507Z,96370.81
2022-10-23T21:01:14.112Z,96365.56
2022-10-23T21:03:41.157Z,96357.66
2022-10-23T21:06:12.666Z,96354.53
2022-10-23T21:08:39.866Z,96352.38
2022-10-23T21:11:08.606Z,96351.91
2022-10-23T21:13:35.928Z,96366.88
2022-10-23T21:16:23.629Z,96367.16
2022-10-23T21:18:53.177Z,96365.56
2022-10-23T21:21:21.627Z,96362.41
2022-10-23T21:23:50.776Z,96359.47
2022-10-23T21:26:20.225Z,96347.69
2022-10-23T21:28:56.097Z,96341.91
2022-10-23T21:31:36.329Z,96340.59
2022-10-23T21:34:03.963Z,96339.78
2022-10-23T21:36:34.237Z,96342.66
2022-10-23T21:39:06.819Z,96339.78
2022-10-23T21:41:34.756Z,96333.25
2022-10-23T21:44:04.955Z,96332.75
2022-10-23T21:46:34.493Z,96326.13
2022-10-23T21:49:02.155Z,96331.59
2022-10-23T21:51:40.425Z,96340.81
2022-10-23T21:54:12.476Z,96342.91
2022-10-23T21:56:45.645Z,96339.00
2022-10-23T21:59:15.230Z,96332.94
2022-10-23T22:01:44.657Z,96322.69
2022-10-23T22:04:14.479Z,96317.13
2022-10-23T22:06:42.836Z,96313.47
2022-10-23T22:09:14.149Z,96313.75
2022-10-23T22:11:41.506Z,96323.72
2022-10-23T22:14:08.635Z,96331.91
2022-10-23T22:16:35.653Z,96334.03
2022-10-23T22:19:03.118Z,96342.22
2022-10-23T22:21:31.798Z,96344.59
2022-10-23T22:24:00.389Z,96335.91
2022-10-23T22:26:34.726Z,96340.88
2022-10-23T22:29:05.247Z,96330.06
2022-10-23T22:31:34.380Z,96324.00
2022-10-23T22:34:13.196Z,96334.19
2022-10-23T22:36:50.139Z,96332.34
2022-10-23T22:39:17.135Z,96325.50
2022-10-23T22:41:44.209Z,96333.94
2022-10-23T22:44:12.430Z,96334.50
2022-10-23T22:46:39.316Z,96335.41
2022-10-23T22:51:53.233Z,96335.34
2022-10-23T22:54:20.158Z,96330.13
2022-10-23T22:56:47.135Z,96325.66
2022-10-23T22:59:14.157Z,96318.88
2022-10-23T23:01:44.895Z,96322.53
2022-10-23T23:04:36.702Z,96325.94
2022-10-23T23:07:00.220Z,96323.88
2022-10-23T23:09:27.115Z,96343.25
2022-10-23T23:11:54.026Z,96331.72
2022-10-23T23:14:23.704Z,96336.22
2022-10-23T23:16:53.320Z,96326.50
2022-10-23T23:19:22.664Z,96322.53
2022-10-23T23:21:51.189Z,96319.06
2022-10-23T23:24:18.202Z,96318.25
2022-10-23T23:26:45.167Z,96325.78
2022-10-23T23:29:12.516Z,96313.53
2022-10-23T23:31:39.635Z,96322.19
2022-10-23T23:34:06.735Z,96318.50
2022-10-23T23:36:34.100Z,96326.69
2022-10-23T23:39:01.668Z,96328.78
2022-10-23T23:41:29.697Z,96315.88
2022-10-23T23:43:58.388Z,96324.88
2022-10-23T23:46:26.656Z,96311.44
2022-10-23T23:48:53.517Z,96307.22
2022-10-23T23:51:24.336Z,96290.38
2022-10-23T23:53:51.842Z,96296.91
2022-10-23T23:56:19.815Z,96284.56
2022-10-23T23:58:46.897Z,96299.84
